createdAt,value
2022-12-03T00:00:48.450Z,64.65
2022-12-03T00:03:15.577Z,57.80
2022-12-03T00:05:48.906Z,65.07
2022-12-03T00:08:16.600Z,63.50
2022-12-03T00:10:45.088Z,64.65
2022-12-03T00:13:13.295Z,64.93
2022-12-03T00:15:40.301Z,62.28
2022-12-03T00:18:09.720Z,60.40
2022-12-03T00:20:36.677Z,59.85
2022-12-03T00:23:05.252Z,60.45
2022-12-03T00:25:33.284Z,60.55
2022-12-03T00:28:00.712Z,62.05
2022-12-03T00:30:29.248Z,60.58
2022-12-03T00:32:56.686Z,62.53
2022-12-03T00:35:24.091Z,60.08
2022-12-03T00:37:51.138Z,60.40
2022-12-03T00:40:18.466Z,58.72
2022-12-03T00:42:45.647Z,62.10
2022-12-03T00:45:13.075Z,63.15
2022-12-03T00:47:41.403Z,64.15
2022-12-03T00:50:10.259Z,65.00
2022-12-03T00:52:38.380Z,60.03
2022-12-03T00:55:06.127Z,60.20
2022-12-03T00:57:33.244Z,65.45
2022-12-03T01:00:07.431Z,64.90
2022-12-03T01:02:34.815Z,63.78
2022-12-03T01:05:06.282Z,64.90
2022-12-03T01:07:33.497Z,64.70
2022-12-03T01:10:00.843Z,69.15
2022-12-03T01:12:28.267Z,64.45
2022-12-03T01:14:55.952Z,67.60
2022-12-03T01:17:23.126Z,71.32
2022-12-03T01:19:52.776Z,68.30
2022-12-03T01:22:20.089Z,66.30
2022-12-03T01:24:54.101Z,69.10
2022-12-03T01:27:21.673Z,68.65
2022-12-03T01:29:48.640Z,67.38
2022-12-03T01:32:19.784Z,70.95
2022-12-03T01:34:49.996Z,69.90
2022-12-03T01:37:17.881Z,64.63
2022-12-03T01:39:45.203Z,72.03
2022-12-03T01:42:27.462Z,69.93
2022-12-03T01:44:57.851Z,66.85
2022-12-03T01:47:36.110Z,73.70
2022-12-03T01:50:15.815Z,78.43
2022-12-03T01:52:43.009Z,76.75
2022-12-03T01:55:20.858Z,74.80
2022-12-03T01:57:54.195Z,70.30
2022-12-03T02:02:57.421Z,74.43
2022-12-03T02:05:27.653Z,73.50
2022-12-03T02:07:57.460Z,72.65
2022-12-03T02:10:36.339Z,69.63
2022-12-03T02:13:11.354Z,73.55
2022-12-03T02:15:40.229Z,69.38
2022-12-03T02:18:13.319Z,70.57
2022-12-03T02:21:12.141Z,74.82
2022-12-03T02:24:08.057Z,71.53
2022-12-03T02:26:36.314Z,74.35
2022-12-03T02:29:03.796Z,70.88
2022-12-03T02:31:32.306Z,69.38
2022-12-03T02:33:59.773Z,69.50
2022-12-03T02:36:28.229Z,75.75
2022-12-03T02:39:04.485Z,67.82
2022-12-03T02:41:50.354Z,72.97
2022-12-03T02:44:17.696Z,74.95
2022-12-03T02:46:48.706Z,68.75
2022-12-03T02:49:16.264Z,76.35
2022-12-03T02:51:43.644Z,75.88
2022-12-03T02:54:11.216Z,75.53
2022-12-03T02:56:40.689Z,80.00
2022-12-03T02:59:10.409Z,74.28
2022-12-03T03:01:38.575Z,76.88
2022-12-03T03:04:07.117Z,72.55
2022-12-03T03:06:34.783Z,71.78
2022-12-03T03:09:03.227Z,71.70
2022-12-03T03:11:30.629Z,71.20
2022-12-03T03:13:57.794Z,74.25
2022-12-03T03:16:24.805Z,71.28
2022-12-03T03:18:53.316Z,73.95
2022-12-03T03:21:22.817Z,76.78
2022-12-03T03:23:50.248Z,80.50
2022-12-03T03:26:17.936Z,71.22
2022-12-03T03:28:50.345Z,79.30
2022-12-03T03:31:23.068Z,75.17
2022-12-03T03:33:53.393Z,71.90
2022-12-03T03:36:23.350Z,74.78
2022-12-03T03:38:53.345Z,77.03
2022-12-03T03:41:21.892Z,72.63
2022-12-03T03:43:50.459Z,76.63
2022-12-03T03:46:19.326Z,74.18
2022-12-03T03:48:48.847Z,72.90
2022-12-03T03:51:18.862Z,74.97
2022-12-03T03:53:49.988Z,69.88
2022-12-03T03:56:21.776Z,73.32
2022-12-03T03:58:50.969Z,72.38
2022-12-03T04:01:18.664Z,77.95
2022-12-03T04:03:45.667Z,81.43
2022-12-03T04:06:12.912Z,77.20
2022-12-03T04:08:40.309Z,82.75
2022-12-03T04:11:26.252Z,75.47
2022-12-03T04:13:53.589Z,74.47
2022-12-03T04:16:21.633Z,77.97
2022-12-03T04:18:51.137Z,83.05
2022-12-03T04:21:42.392Z,80.20
2022-12-03T04:24:11.753Z,84.60
2022-12-03T04:26:57.472Z,80.45
2022-12-03T04:29:24.770Z,81.00
2022-12-03T04:32:11.410Z,70.35
2022-12-03T04:34:57.622Z,80.25
2022-12-03T04:37:25.757Z,76.68
2022-12-03T04:39:52.774Z,75.25
2022-12-03T04:42:20.167Z,80.63
2022-12-03T04:44:47.615Z,82.53
2022-12-03T04:47:21.026Z,77.57
2022-12-03T04:49:51.939Z,77.40
2022-12-03T04:52:25.330Z,83.90
2022-12-03T04:57:20.215Z,89.47
2022-12-03T04:59:47.147Z,77.05
2022-12-03T05:02:16.187Z,70.28
2022-12-03T05:04:43.582Z,87.95
2022-12-03T05:07:12.670Z,83.65
2022-12-03T05:09:40.129Z,86.38
2022-12-03T05:12:07.691Z,87.97
2022-12-03T05:14:35.215Z,91.60
2022-12-03T05:17:02.414Z,92.10
2022-12-03T05:19:48.582Z,87.80
2022-12-03T05:22:16.772Z,83.57
2022-12-03T05:24:45.302Z,85.13
2022-12-03T05:27:12.753Z,86.72
2022-12-03T05:29:41.056Z,81.90
2022-12-03T05:32:10.197Z,87.55
2022-12-03T05:34:37.217Z,84.50
2022-12-03T05:37:05.336Z,82.75
2022-12-03T05:39:34.885Z,83.47
2022-12-03T05:42:20.462Z,80.90
2022-12-03T05:44:49.579Z,95.43
2022-12-03T05:47:16.680Z,84.25
2022-12-03T05:49:44.176Z,80.65
2022-12-03T05:52:11.468Z,82.03
2022-12-03T05:54:39.217Z,78.70
2022-12-03T05:57:08.366Z,86.63
2022-12-03T05:59:35.338Z,83.78
2022-12-03T06:02:04.979Z,80.28
2022-12-03T06:04:32.345Z,86.60
2022-12-03T06:06:59.425Z,85.43
2022-12-03T06:09:26.771Z,96.97
2022-12-03T06:11:54.473Z,99.25
2022-12-03T06:14:23.752Z,92.35
2022-12-03T06:16:51.216Z,98.70
2022-12-03T06:19:18.657Z,104.65
2022-12-03T06:21:46.177Z,98.07
2022-12-03T06:24:13.590Z,115.70
2022-12-03T06:26:40.736Z,128.65
2022-12-03T06:29:09.053Z,123.25
2022-12-03T06:31:36.156Z,108.57
2022-12-03T06:34:03.564Z,107.75
2022-12-03T06:36:31.089Z,105.45
2022-12-03T06:38:58.526Z,106.85
2022-12-03T06:41:25.916Z,100.90
2022-12-03T06:43:53.081Z,96.25
2022-12-03T06:46:20.352Z,92.60
2022-12-03T06:48:47.937Z,95.60
2022-12-03T06:51:17.394Z,95.72
2022-12-03T06:53:44.333Z,95.57
2022-12-03T06:56:11.751Z,91.88
2022-12-03T06:58:39.169Z,92.57
2022-12-03T07:01:06.593Z,102.20
2022-12-03T07:03:33.585Z,110.00
2022-12-03T07:06:01.341Z,136.98
2022-12-03T07:08:46.874Z,128.70
2022-12-03T07:23:58.537Z,98.32
2022-12-03T07:26:26.078Z,97.97
2022-12-03T07:28:54.381Z,98.35
2022-12-03T07:31:21.849Z,96.30
2022-12-03T07:33:49.218Z,102.18
2022-12-03T07:36:17.417Z,104.85
2022-12-03T07:38:45.085Z,105.65
2022-12-03T07:41:12.171Z,99.00
2022-12-03T07:43:40.346Z,105.22
2022-12-03T07:46:08.743Z,106.95
2022-12-03T07:48:36.230Z,115.97
2022-12-03T07:51:03.915Z,106.80
2022-12-03T07:53:31.775Z,108.40
2022-12-03T07:55:59.137Z,110.65
2022-12-03T07:58:33.267Z,109.93
2022-12-03T08:01:01.868Z,111.93
2022-12-03T08:03:28.819Z,111.13
2022-12-03T08:05:57.222Z,94.95
2022-12-03T08:08:24.781Z,114.95
2022-12-03T08:10:52.158Z,133.23
2022-12-03T08:13:19.685Z,125.15
2022-12-03T08:15:47.561Z,119.68
2022-12-03T08:18:20.932Z,119.40
2022-12-03T08:23:26.770Z,118.65
2022-12-03T08:25:54.804Z,136.68
2022-12-03T08:28:25.931Z,129.38
2022-12-03T08:31:32.703Z,112.50
2022-12-03T08:34:22.326Z,115.63
2022-12-03T08:37:06.713Z,109.53
2022-12-03T08:39:44.765Z,105.43
2022-12-03T08:42:46.744Z,117.43
2022-12-03T08:45:40.810Z,115.03
2022-12-03T08:48:34.208Z,112.82
2022-12-03T08:51:25.388Z,114.68
2022-12-03T08:54:13.038Z,115.30
2022-12-03T08:56:56.447Z,100.77
2022-12-03T08:59:26.012Z,121.72
2022-12-03T09:02:00.042Z,121.43
2022-12-03T09:04:32.384Z,119.35
2022-12-03T09:06:59.759Z,123.53
2022-12-03T09:09:27.196Z,119.22
2022-12-03T09:11:56.118Z,128.98
2022-12-03T09:14:24.051Z,124.90
2022-12-03T09:16:56.104Z,120.07
2022-12-03T09:19:25.570Z,127.35
2022-12-03T09:21:54.341Z,128.40
2022-12-03T09:24:21.606Z,124.05
2022-12-03T09:26:49.580Z,127.53
2022-12-03T09:29:16.971Z,127.32
2022-12-03T09:31:44.400Z,127.65
2022-12-03T09:34:11.849Z,120.90
2022-12-03T09:36:39.340Z,123.57
2022-12-03T09:39:06.838Z,125.82
2022-12-03T09:41:34.326Z,127.68
2022-12-03T09:44:04.431Z,121.53
2022-12-03T09:46:37.902Z,128.50
2022-12-03T09:49:13.946Z,119.47
2022-12-03T09:51:45.905Z,117.22
2022-12-03T09:54:23.077Z,123.07
2022-12-03T09:56:51.920Z,122.38
2022-12-03T09:59:23.126Z,122.90
2022-12-03T10:01:53.189Z,124.68
2022-12-03T10:04:20.931Z,120.57
2022-12-03T10:06:48.507Z,118.40
2022-12-03T10:09:22.756Z,120.43
2022-12-03T10:11:50.893Z,100.28
2022-12-03T10:14:20.341Z,113.20
2022-12-03T10:16:48.059Z,120.53
2022-12-03T10:19:27.993Z,115.35
2022-12-03T10:21:56.514Z,111.45
2022-12-03T10:24:29.083Z,117.40
2022-12-03T10:26:59.594Z,114.43
2022-12-03T10:29:34.211Z,115.35
2022-12-03T10:32:13.055Z,118.85
2022-12-03T10:34:42.513Z,106.20
2022-12-03T10:37:18.631Z,120.82
2022-12-03T10:40:11.001Z,113.47
2022-12-03T10:42:41.160Z,115.22
2022-12-03T10:45:15.108Z,119.45
2022-12-03T10:48:03.594Z,107.85
2022-12-03T10:50:49.564Z,125.90
2022-12-03T10:53:19.371Z,111.85
2022-12-03T10:55:48.445Z,118.97
2022-12-03T10:58:22.325Z,115.38
2022-12-03T11:00:52.059Z,117.18
2022-12-03T11:03:22.625Z,118.78
2022-12-03T11:05:51.147Z,119.00
2022-12-03T11:08:21.162Z,125.05
2022-12-03T11:11:07.560Z,129.88
2022-12-03T11:13:50.035Z,123.82
2022-12-03T11:16:40.460Z,125.82
2022-12-03T11:19:13.138Z,136.10
2022-12-03T11:22:05.516Z,135.60
2022-12-03T11:24:35.910Z,133.82
2022-12-03T11:27:09.272Z,125.75
2022-12-03T11:32:39.174Z,126.75
2022-12-03T11:35:28.529Z,117.23
2022-12-03T11:38:15.736Z,122.43
2022-12-03T11:41:08.514Z,129.40
2022-12-03T11:43:56.905Z,124.28
2022-12-03T11:46:38.142Z,120.18
2022-12-03T11:49:21.167Z,132.70
2022-12-03T11:51:58.946Z,127.85
2022-12-03T11:54:26.544Z,122.53
2022-12-03T11:56:56.367Z,98.60
2022-12-03T11:59:24.562Z,141.38
2022-12-03T12:01:51.511Z,153.65
2022-12-03T12:04:43.179Z,145.20
2022-12-03T12:07:12.090Z,122.68
2022-12-03T12:09:54.311Z,160.20
2022-12-03T12:12:38.589Z,134.57
2022-12-03T12:15:53.880Z,144.27
2022-12-03T12:18:39.647Z,147.75
2022-12-03T12:21:48.031Z,151.70
2022-12-03T12:24:54.025Z,151.57
2022-12-03T12:27:35.994Z,156.40
2022-12-03T12:30:13.996Z,150.23
2022-12-03T12:32:52.253Z,121.13
2022-12-03T12:35:24.546Z,157.95
2022-12-03T12:38:07.784Z,144.27
2022-12-03T12:40:37.726Z,153.80
2022-12-03T12:43:29.885Z,151.45
2022-12-03T12:46:38.633Z,146.90
2022-12-03T12:48:59.342Z,136.82
2022-12-03T12:51:43.776Z,135.00
2022-12-03T12:54:13.431Z,134.48
2022-12-03T12:56:44.485Z,141.52
2022-12-03T12:59:14.602Z,144.73
2022-12-03T13:01:44.393Z,144.38
2022-12-03T13:04:13.975Z,143.60
2022-12-03T13:06:41.575Z,139.10
2022-12-03T13:09:20.880Z,141.02
2022-12-03T13:12:01.539Z,145.13
2022-12-03T13:14:35.366Z,141.85
2022-12-03T13:17:14.294Z,139.30
2022-12-03T13:19:48.264Z,148.38
2022-12-03T13:22:25.791Z,148.20
2022-12-03T13:24:56.212Z,139.88
2022-12-03T13:27:29.857Z,138.23
2022-12-03T13:30:09.541Z,156.85
2022-12-03T13:32:42.698Z,154.63
2022-12-03T13:35:32.054Z,147.00
2022-12-03T13:37:59.625Z,143.50
2022-12-03T13:40:35.297Z,146.02
2022-12-03T13:43:20.329Z,143.38
2022-12-03T13:45:50.558Z,142.98
2022-12-03T13:48:45.521Z,137.40
2022-12-03T13:51:26.252Z,139.52
2022-12-03T13:53:54.587Z,147.15
2022-12-03T13:56:32.560Z,142.57
2022-12-03T13:59:01.889Z,132.32
2022-12-03T14:01:30.648Z,142.80
2022-12-03T14:03:57.728Z,146.65
2022-12-03T14:06:25.942Z,149.30
2022-12-03T14:08:53.218Z,155.48
2022-12-03T14:11:39.108Z,143.43
2022-12-03T14:14:06.515Z,140.15
2022-12-03T14:16:36.139Z,150.23
2022-12-03T14:19:03.693Z,146.20
2022-12-03T14:21:31.027Z,148.82
2022-12-03T14:23:58.409Z,147.65
2022-12-03T14:26:26.774Z,141.00
2022-12-03T14:28:53.850Z,149.25
2022-12-03T14:31:21.406Z,147.13
2022-12-03T14:33:48.732Z,144.98
2022-12-03T14:36:17.450Z,146.95
2022-12-03T14:38:44.717Z,137.88
2022-12-03T14:41:32.098Z,139.15
2022-12-03T14:44:01.101Z,150.73
2022-12-03T14:46:30.670Z,149.65
2022-12-03T14:48:59.122Z,149.27
2022-12-03T14:51:26.603Z,155.07
2022-12-03T14:53:53.997Z,153.98
2022-12-03T14:56:21.897Z,157.50
2022-12-03T14:58:48.894Z,151.63
2022-12-03T15:01:16.925Z,140.27
2022-12-03T15:03:43.929Z,143.68
2022-12-03T15:06:11.311Z,144.10
2022-12-03T15:08:38.720Z,150.02
2022-12-03T15:11:07.303Z,145.57
2022-12-03T15:13:34.696Z,141.57
2022-12-03T15:16:02.218Z,153.38
2022-12-03T15:18:31.283Z,153.55
2022-12-03T15:20:58.608Z,159.48
2022-12-03T15:23:26.029Z,158.85
2022-12-03T15:25:53.113Z,160.90
2022-12-03T15:28:22.139Z,157.45
2022-12-03T15:30:50.669Z,151.82
2022-12-03T15:33:18.899Z,154.95
2022-12-03T15:35:45.897Z,143.25
2022-12-03T15:38:13.580Z,149.38
2022-12-03T15:40:47.556Z,143.18
2022-12-03T15:43:14.948Z,144.52
2022-12-03T15:45:43.448Z,142.90
2022-12-03T15:48:11.240Z,143.25
2022-12-03T15:50:40.298Z,141.90
2022-12-03T15:53:08.916Z,147.13
2022-12-03T15:55:37.321Z,148.05
2022-12-03T15:58:04.723Z,144.95
2022-12-03T16:00:39.402Z,157.90
2022-12-03T16:03:06.905Z,164.48
2022-12-03T16:05:34.618Z,159.32
2022-12-03T16:08:02.929Z,161.27
2022-12-03T16:10:30.267Z,155.38
2022-12-03T16:12:59.519Z,162.50
2022-12-03T16:15:27.585Z,169.68
2022-12-03T16:17:54.879Z,172.00
2022-12-03T16:20:22.161Z,179.20
2022-12-03T16:22:51.400Z,175.90
2022-12-03T16:25:19.728Z,180.30
2022-12-03T16:27:47.593Z,179.52
2022-12-03T16:30:15.568Z,158.27
2022-12-03T16:32:42.654Z,171.15
2022-12-03T16:35:10.401Z,170.60
2022-12-03T16:37:40.055Z,169.88
2022-12-03T16:40:08.148Z,164.82
2022-12-03T16:42:37.537Z,165.02
2022-12-03T16:45:08.409Z,164.32
2022-12-03T16:47:36.364Z,155.98
2022-12-03T16:50:09.867Z,165.48
2022-12-03T16:52:40.225Z,172.80
2022-12-03T16:55:08.250Z,170.93
2022-12-03T16:57:35.928Z,170.27
2022-12-03T17:00:03.886Z,166.10
2022-12-03T17:02:31.073Z,166.13
2022-12-03T17:04:58.562Z,160.98
2022-12-03T17:07:26.266Z,173.23
2022-12-03T17:09:55.701Z,160.38
2022-12-03T17:12:23.048Z,167.32
2022-12-03T17:14:50.297Z,176.07
2022-12-03T17:17:18.368Z,164.52
2022-12-03T17:19:45.305Z,160.60
2022-12-03T17:22:12.192Z,149.73
2022-12-03T17:24:39.173Z,149.77
2022-12-03T17:27:08.129Z,150.55
2022-12-03T17:29:35.072Z,81.63
2022-12-03T17:32:02.150Z,163.52
2022-12-03T17:34:29.751Z,157.73
2022-12-03T17:36:56.967Z,149.90
2022-12-03T17:39:24.021Z,150.80
2022-12-03T17:41:51.357Z,144.07
2022-12-03T17:44:21.198Z,155.80
2022-12-03T17:46:50.009Z,160.05
2022-12-03T17:49:17.724Z,156.73
2022-12-03T17:51:44.775Z,153.27
2022-12-03T17:54:13.109Z,158.35
2022-12-03T17:56:43.829Z,157.15
2022-12-03T17:59:12.145Z,152.38
2022-12-03T18:01:39.793Z,162.55
2022-12-03T18:04:07.727Z,163.63
2022-12-03T18:06:34.765Z,168.50
2022-12-03T18:09:03.087Z,162.32
2022-12-03T18:11:30.818Z,160.35
2022-12-03T18:13:58.768Z,160.02
2022-12-03T18:16:26.280Z,167.05
2022-12-03T18:18:56.691Z,162.35
2022-12-03T18:21:26.905Z,175.68
2022-12-03T18:23:56.429Z,170.57
2022-12-03T18:26:23.440Z,175.93
2022-12-03T18:28:56.770Z,162.07
2022-12-03T18:33:52.047Z,177.25
2022-12-03T18:36:22.996Z,175.38
2022-12-03T18:38:55.767Z,174.75
2022-12-03T18:41:24.406Z,168.25
2022-12-03T18:43:53.745Z,179.98
2022-12-03T18:49:10.609Z,167.27
2022-12-03T18:51:38.364Z,167.95
2022-12-03T18:54:12.720Z,169.82
2022-12-03T18:56:41.427Z,161.85
2022-12-03T18:59:15.065Z,161.55
2022-12-03T19:01:43.357Z,169.07
2022-12-03T19:04:11.540Z,160.60
2022-12-03T19:06:41.082Z,160.95
2022-12-03T19:09:09.693Z,154.00
2022-12-03T19:11:37.072Z,170.63
2022-12-03T19:14:04.488Z,166.65
2022-12-03T19:16:33.296Z,174.13
2022-12-03T19:19:02.482Z,162.38
2022-12-03T19:21:33.687Z,170.70
2022-12-03T19:24:23.800Z,169.55
2022-12-03T19:26:55.745Z,170.23
2022-12-03T19:29:24.087Z,174.48
2022-12-03T19:31:52.187Z,176.57
2022-12-03T19:34:20.415Z,175.15
2022-12-03T19:36:49.028Z,168.00
2022-12-03T19:39:16.403Z,175.27
2022-12-03T19:41:47.723Z,165.48
2022-12-03T19:44:17.617Z,164.63
2022-12-03T19:46:45.785Z,180.18
2022-12-03T19:49:21.532Z,166.00
2022-12-03T19:51:49.287Z,171.82
2022-12-03T19:54:17.966Z,171.95
2022-12-03T19:56:45.406Z,177.75
2022-12-03T19:59:14.592Z,170.52
2022-12-03T20:01:43.727Z,168.30
2022-12-03T20:04:13.367Z,190.93
2022-12-03T20:06:41.077Z,183.68
2022-12-03T20:09:14.078Z,177.15
2022-12-03T20:11:44.809Z,174.35
2022-12-03T20:14:15.645Z,187.60
2022-12-03T20:16:48.022Z,173.20
2022-12-03T20:19:18.278Z,180.68
2022-12-03T20:21:47.264Z,181.48
2022-12-03T20:24:17.569Z,185.90
2022-12-03T20:26:45.260Z,197.55
2022-12-03T20:29:13.256Z,196.73
2022-12-03T20:31:41.176Z,194.05
2022-12-03T20:34:10.672Z,185.65
2022-12-03T20:36:38.620Z,171.18
2022-12-03T20:39:08.017Z,182.05
2022-12-03T20:41:37.156Z,169.82
2022-12-03T20:44:06.879Z,164.93
2022-12-03T20:46:34.752Z,169.57
2022-12-03T20:49:05.664Z,171.18
2022-12-03T20:51:34.308Z,175.55
2022-12-03T20:54:02.348Z,176.77
2022-12-03T20:56:32.695Z,183.68
2022-12-03T20:59:13.685Z,168.88
2022-12-03T21:01:41.851Z,178.20
2022-12-03T21:04:10.371Z,172.25
2022-12-03T21:06:38.230Z,177.93
2022-12-03T21:09:09.330Z,177.18
2022-12-03T21:11:39.551Z,163.32
2022-12-03T21:14:07.496Z,166.50
2022-12-03T21:17:10.339Z,167.43
2022-12-03T21:19:29.497Z,159.25
2022-12-03T21:21:57.056Z,159.75
2022-12-03T21:24:24.464Z,162.02
2022-12-03T21:26:51.854Z,159.13
2022-12-03T21:29:19.348Z,163.10
2022-12-03T21:31:47.278Z,156.65
2022-12-03T21:34:14.903Z,146.95
2022-12-03T21:36:42.283Z,159.30
2022-12-03T21:39:10.379Z,143.43
2022-12-03T21:41:37.579Z,149.77
2022-12-03T21:44:05.217Z,150.43
2022-12-03T21:47:11.972Z,154.15
2022-12-03T21:49:33.111Z,153.20
2022-12-03T21:52:00.181Z,154.75
2022-12-03T21:54:28.556Z,152.25
2022-12-03T21:56:55.940Z,150.15
2022-12-03T21:59:23.116Z,167.70
2022-12-03T22:01:50.542Z,163.98
2022-12-03T22:04:18.194Z,154.10
2022-12-03T22:06:45.831Z,158.43
2022-12-03T22:09:13.897Z,154.32
2022-12-03T22:11:41.225Z,166.75
2022-12-03T22:14:10.069Z,164.20
2022-12-03T22:16:37.296Z,161.95
2022-12-03T22:19:04.831Z,155.55
2022-12-03T22:21:35.896Z,158.75
2022-12-03T22:24:03.428Z,161.55
2022-12-03T22:26:30.730Z,162.40
2022-12-03T22:28:58.104Z,164.82
2022-12-03T22:31:26.162Z,160.05
2022-12-03T22:33:53.583Z,168.77
2022-12-03T22:36:22.656Z,165.50
2022-12-03T22:38:51.328Z,165.68
2022-12-03T22:41:20.374Z,164.68
2022-12-03T22:43:49.083Z,164.35
2022-12-03T22:46:17.634Z,162.35
2022-12-03T22:48:46.864Z,177.13
2022-12-03T22:51:23.674Z,170.35
2022-12-03T22:53:55.651Z,166.90
2022-12-03T22:56:31.704Z,170.70
2022-12-03T22:58:59.425Z,169.15
2022-12-03T23:01:30.188Z,178.32
2022-12-03T23:03:57.739Z,169.40
2022-12-03T23:06:25.424Z,182.43
2022-12-03T23:08:53.203Z,177.98
2022-12-03T23:11:23.001Z,187.80
2022-12-03T23:13:50.756Z,176.98
2022-12-03T23:16:22.537Z,182.52
2022-12-03T23:18:52.973Z,180.85
2022-12-03T23:21:29.004Z,174.70
2022-12-03T23:24:00.455Z,186.45
2022-12-03T23:26:27.773Z,176.13
2022-12-03T23:28:55.295Z,165.77
2022-12-03T23:31:28.290Z,168.43
2022-12-03T23:33:57.358Z,162.02
2022-12-03T23:36:26.389Z,176.80
2022-12-03T23:38:54.256Z,171.18
2022-12-03T23:41:23.952Z,177.18
2022-12-03T23:43:51.950Z,173.07
2022-12-03T23:46:23.950Z,161.93
2022-12-03T23:48:52.137Z,162.65
2022-12-03T23:51:22.804Z,150.05
2022-12-03T23:53:50.588Z,161.43
2022-12-03T23:56:22.103Z,169.07
2022-12-03T23:58:49.669Z,155.18
